createdAt,value
2023-03-08T00:01:57.564Z,3.39
2023-03-08T00:04:24.328Z,3.41
2023-03-08T00:06:50.944Z,3.42
2023-03-08T00:09:17.495Z,3.55
2023-03-08T00:11:44.033Z,3.52
2023-03-08T00:14:10.611Z,3.53
2023-03-08T00:16:37.088Z,3.50
2023-03-08T00:19:03.656Z,3.45
2023-03-08T00:21:30.151Z,3.38
2023-03-08T00:23:56.673Z,3.20
2023-03-08T00:26:23.416Z,3.07
2023-03-08T00:28:50.457Z,3.00
2023-03-08T00:31:17.186Z,2.89
2023-03-08T00:33:43.737Z,2.91
2023-03-08T00:36:14.945Z,2.94
2023-03-08T00:38:42.013Z,2.99
2023-03-08T00:41:08.865Z,3.01
2023-03-08T00:43:35.950Z,3.03
2023-03-08T00:46:02.587Z,3.04
2023-03-08T00:48:29.117Z,3.04
2023-03-08T00:50:55.634Z,3.04
2023-03-08T00:53:22.153Z,3.05
2023-03-08T00:55:59.098Z,3.08
2023-03-08T00:58:27.748Z,3.14
2023-03-08T01:00:54.776Z,3.19
2023-03-08T01:03:24.391Z,3.24
2023-03-08T01:05:53.826Z,3.28
2023-03-08T01:08:22.583Z,3.32
2023-03-08T01:10:56.885Z,3.27
2023-03-08T01:13:25.846Z,3.23
2023-03-08T01:15:52.644Z,3.25
2023-03-08T01:18:19.416Z,3.15
2023-03-08T01:20:54.467Z,3.07
2023-03-08T01:23:20.943Z,3.04
2023-03-08T01:25:47.406Z,2.91
2023-03-08T01:28:13.887Z,2.81
2023-03-08T01:30:40.398Z,2.75
2023-03-08T01:33:06.910Z,2.70
2023-03-08T01:35:33.431Z,2.64
2023-03-08T01:37:59.967Z,2.53
2023-03-08T01:40:26.406Z,2.46
2023-03-08T01:42:52.940Z,2.39
2023-03-08T01:45:56.942Z,2.33
2023-03-08T01:48:30.293Z,2.27
2023-03-08T01:50:57.784Z,2.27
2023-03-08T01:53:25.532Z,2.20
2023-03-08T01:55:52.555Z,2.16
2023-03-08T01:58:19.073Z,2.15
2023-03-08T02:00:45.606Z,2.10
2023-03-08T02:03:12.177Z,2.05
2023-03-08T02:05:43.343Z,1.97
2023-03-08T02:08:10.184Z,1.98
2023-03-08T02:10:38.014Z,2.00
2023-03-08T02:13:06.546Z,2.02
2023-03-08T02:15:33.187Z,2.07
2023-03-08T02:17:59.759Z,2.16
2023-03-08T02:20:30.862Z,2.26
2023-03-08T02:23:09.062Z,2.38
2023-03-08T02:25:35.559Z,2.47
2023-03-08T02:28:03.049Z,2.49
2023-03-08T02:30:35.881Z,2.55
2023-03-08T02:33:02.588Z,2.59
2023-03-08T02:35:29.815Z,2.63
2023-03-08T02:37:56.568Z,2.61
2023-03-08T02:40:23.106Z,2.51
2023-03-08T02:42:51.201Z,2.48
2023-03-08T02:45:19.448Z,2.41
2023-03-08T02:47:45.931Z,2.30
2023-03-08T02:50:12.418Z,2.21
2023-03-08T02:52:38.897Z,2.14
2023-03-08T02:55:05.921Z,2.06
2023-03-08T02:57:32.397Z,1.96
2023-03-08T02:59:58.904Z,1.91
2023-03-08T03:02:25.421Z,1.93
2023-03-08T03:04:51.927Z,1.96
2023-03-08T03:07:18.397Z,2.00
2023-03-08T03:09:44.879Z,1.97
2023-03-08T03:12:11.338Z,1.95
2023-03-08T03:14:37.819Z,1.88
2023-03-08T03:17:04.329Z,1.77
2023-03-08T03:19:31.099Z,1.69
2023-03-08T03:21:57.589Z,1.58
2023-03-08T03:24:24.120Z,1.54
2023-03-08T03:26:51.673Z,1.47
2023-03-08T03:29:18.274Z,1.44
2023-03-08T03:31:44.933Z,1.35
2023-03-08T03:34:11.510Z,1.25
2023-03-08T03:36:38.003Z,1.15
2023-03-08T03:39:04.666Z,1.04
2023-03-08T03:41:31.292Z,0.96
2023-03-08T03:43:58.982Z,0.91
2023-03-08T03:46:25.489Z,0.83
2023-03-08T03:48:52.102Z,0.72
2023-03-08T03:51:20.801Z,0.63
2023-03-08T03:53:48.728Z,0.57
2023-03-08T03:56:23.421Z,0.49
2023-03-08T03:58:50.882Z,0.40
2023-03-08T04:01:24.609Z,0.31
2023-03-08T04:03:52.769Z,0.20
2023-03-08T04:06:22.254Z,0.15
2023-03-08T04:08:49.650Z,0.08
2023-03-08T04:11:19.164Z,0.01
2023-03-08T04:13:46.191Z,-0.05
2023-03-08T04:16:30.580Z,-0.16
2023-03-08T04:19:02.878Z,-0.22
2023-03-08T04:21:29.654Z,-0.28
2023-03-08T04:23:59.445Z,-0.30
2023-03-08T04:26:26.981Z,-0.33
2023-03-08T04:28:53.542Z,-0.35
2023-03-08T04:31:28.485Z,-0.30
2023-03-08T04:33:55.614Z,-0.29
2023-03-08T04:36:22.838Z,-0.31
2023-03-08T04:38:50.246Z,-0.31
2023-03-08T04:41:17.166Z,-0.32
2023-03-08T04:43:50.941Z,-0.38
2023-03-08T04:46:19.599Z,-0.44
2023-03-08T04:48:46.812Z,-0.47
2023-03-08T04:51:15.097Z,-0.48
2023-03-08T04:53:44.557Z,-0.53
2023-03-08T04:56:12.150Z,-0.56
2023-03-08T04:58:39.048Z,-0.64
2023-03-08T05:01:14.246Z,-0.71
2023-03-08T05:03:41.552Z,-0.80
2023-03-08T05:06:08.623Z,-0.88
2023-03-08T05:08:35.673Z,-0.97
2023-03-08T05:11:02.854Z,-1.06
2023-03-08T05:13:32.277Z,-1.10
2023-03-08T05:15:59.245Z,-1.12
2023-03-08T05:18:26.289Z,-1.19
2023-03-08T05:20:57.749Z,-1.23
2023-03-08T05:23:28.488Z,-1.28
2023-03-08T05:25:57.972Z,-1.30
2023-03-08T05:28:26.141Z,-1.26
2023-03-08T05:31:11.750Z,-1.23
2023-03-08T05:33:39.213Z,-1.19
2023-03-08T05:36:07.037Z,-1.12
2023-03-08T05:38:34.066Z,-1.02
2023-03-08T05:41:02.170Z,-0.93
2023-03-08T05:43:28.869Z,-0.87
2023-03-08T05:46:02.270Z,-0.74
2023-03-08T05:48:30.717Z,-0.63
2023-03-08T05:50:57.880Z,-0.58
2023-03-08T05:53:24.705Z,-0.50
2023-03-08T05:55:51.292Z,-0.39
2023-03-08T05:58:17.812Z,-0.28
2023-03-08T06:00:44.365Z,-0.17
2023-03-08T06:03:10.949Z,-0.05
2023-03-08T06:05:37.712Z,0.08
2023-03-08T06:08:04.483Z,0.37
2023-03-08T06:10:31.041Z,0.63
2023-03-08T06:12:57.535Z,0.77
2023-03-08T06:15:24.061Z,0.87
2023-03-08T06:17:53.948Z,1.02
2023-03-08T06:20:20.898Z,1.06
2023-03-08T06:22:47.811Z,1.05
2023-03-08T06:25:14.382Z,1.06
2023-03-08T06:27:41.013Z,1.07
2023-03-08T06:30:07.982Z,1.22
2023-03-08T06:32:35.993Z,1.65
2023-03-08T06:35:02.653Z,2.08
2023-03-08T06:37:33.128Z,2.31
2023-03-08T06:39:59.714Z,2.42
2023-03-08T06:42:40.219Z,2.48
2023-03-08T06:45:08.282Z,2.61
2023-03-08T06:47:34.918Z,2.58
2023-03-08T06:50:01.502Z,2.57
2023-03-08T06:52:28.015Z,2.52
2023-03-08T06:54:54.532Z,2.46
2023-03-08T06:57:20.970Z,2.56
2023-03-08T06:59:47.462Z,2.71
2023-03-08T07:02:13.964Z,2.84
2023-03-08T07:04:40.474Z,2.97
2023-03-08T07:07:07.923Z,2.97
2023-03-08T07:09:34.724Z,2.93
2023-03-08T07:12:01.215Z,2.93
2023-03-08T07:14:27.783Z,2.99
2023-03-08T07:16:54.276Z,3.07
2023-03-08T07:19:20.842Z,3.32
2023-03-08T07:21:47.341Z,3.71
2023-03-08T07:24:13.817Z,4.25
2023-03-08T07:26:40.463Z,4.86
2023-03-08T07:29:08.084Z,5.39
2023-03-08T07:31:36.277Z,5.72
2023-03-08T07:34:05.574Z,5.98
2023-03-08T07:36:33.354Z,6.11
2023-03-08T07:38:59.896Z,6.23
2023-03-08T07:41:30.435Z,6.21
2023-03-08T07:43:56.899Z,6.21
2023-03-08T07:46:23.613Z,6.31
2023-03-08T07:48:55.078Z,6.27
2023-03-08T07:51:23.044Z,6.13
2023-03-08T07:53:51.108Z,6.14
2023-03-08T07:56:17.609Z,6.12
2023-03-08T07:58:44.238Z,6.01
2023-03-08T08:01:12.152Z,5.98
2023-03-08T08:03:39.217Z,5.96
2023-03-08T08:06:06.947Z,5.86
2023-03-08T08:08:33.474Z,5.87
2023-03-08T08:11:00.056Z,5.73
2023-03-08T08:13:26.597Z,5.66
2023-03-08T08:16:00.380Z,5.62
2023-03-08T08:18:27.844Z,5.62
2023-03-08T08:21:06.299Z,5.74
2023-03-08T08:23:33.195Z,5.80
2023-03-08T08:25:59.790Z,5.95
2023-03-08T08:28:27.460Z,6.15
2023-03-08T08:30:59.514Z,6.41
2023-03-08T08:33:27.383Z,6.68
2023-03-08T08:35:54.017Z,6.86
2023-03-08T08:38:20.571Z,7.09
2023-03-08T08:40:47.166Z,7.24
2023-03-08T08:43:14.047Z,7.31
2023-03-08T08:45:48.502Z,7.33
2023-03-08T08:48:15.238Z,7.39
2023-03-08T08:50:42.874Z,7.43
2023-03-08T08:53:10.319Z,7.85
2023-03-08T08:55:36.877Z,8.18
2023-03-08T08:58:04.811Z,8.29
2023-03-08T09:00:33.571Z,8.49
2023-03-08T09:03:04.814Z,8.87
2023-03-08T09:05:31.993Z,9.16
2023-03-08T09:08:00.576Z,9.41
2023-03-08T09:10:29.384Z,9.85
2023-03-08T09:12:57.739Z,10.37
2023-03-08T09:15:25.340Z,9.75
2023-03-08T09:17:51.863Z,10.02
2023-03-08T09:20:19.791Z,10.24
2023-03-08T09:22:47.120Z,9.79
2023-03-08T09:25:14.272Z,9.41
2023-03-08T09:27:42.009Z,9.44
2023-03-08T09:30:14.516Z,9.40
2023-03-08T09:32:41.136Z,9.48
2023-03-08T09:35:10.057Z,9.64
2023-03-08T09:37:36.588Z,9.98
2023-03-08T09:40:09.483Z,10.21
2023-03-08T09:42:38.217Z,10.24
2023-03-08T09:45:17.766Z,10.72
2023-03-08T09:47:51.560Z,10.46
2023-03-08T09:50:33.928Z,11.01
2023-03-08T09:53:10.943Z,10.81
2023-03-08T09:55:46.222Z,11.27
2023-03-08T09:58:31.519Z,11.56
2023-03-08T10:01:06.599Z,11.76
2023-03-08T10:03:54.327Z,11.81
2023-03-08T10:06:34.328Z,11.94
2023-03-08T10:09:26.711Z,11.89
2023-03-08T10:12:03.361Z,12.12
2023-03-08T10:14:36.856Z,12.04
2023-03-08T10:17:12.115Z,11.52
2023-03-08T10:20:01.817Z,11.35
2023-03-08T10:22:34.291Z,11.52
2023-03-08T10:25:22.682Z,11.43
2023-03-08T10:27:52.361Z,11.38
2023-03-08T10:30:22.325Z,10.96
2023-03-08T10:32:56.411Z,10.77
2023-03-08T10:35:53.646Z,10.40
2023-03-08T10:38:20.489Z,10.20
2023-03-08T10:40:47.297Z,10.38
2023-03-08T10:43:39.857Z,10.41
2023-03-08T10:46:12.965Z,10.88
2023-03-08T10:48:39.826Z,10.95
2023-03-08T10:51:21.864Z,11.00
2023-03-08T10:54:04.199Z,10.50
2023-03-08T10:56:38.715Z,10.26
2023-03-08T10:59:07.242Z,10.05
2023-03-08T11:01:47.426Z,9.89
2023-03-08T11:04:16.839Z,10.11
2023-03-08T11:06:43.955Z,10.01
2023-03-08T11:09:31.384Z,9.90
2023-03-08T11:11:59.213Z,9.74
2023-03-08T11:14:27.840Z,9.69
2023-03-08T11:17:21.559Z,9.51
2023-03-08T11:20:18.345Z,9.52
2023-03-08T11:22:58.070Z,9.32
2023-03-08T11:26:00.907Z,8.95
2023-03-08T11:28:45.651Z,8.81
2023-03-08T11:31:13.252Z,9.03
2023-03-08T11:33:51.925Z,9.29
2023-03-08T11:36:53.640Z,9.64
2023-03-08T11:39:32.788Z,9.59
2023-03-08T11:42:25.934Z,9.60
2023-03-08T11:45:11.968Z,9.57
2023-03-08T11:47:53.931Z,9.41
2023-03-08T11:50:29.265Z,9.58
2023-03-08T11:53:17.084Z,9.82
2023-03-08T11:56:05.471Z,9.91
2023-03-08T11:58:52.736Z,10.10
2023-03-08T12:01:24.327Z,10.13
2023-03-08T12:03:55.214Z,10.08
2023-03-08T12:06:30.843Z,10.06
2023-03-08T12:09:05.602Z,10.04
2023-03-08T12:11:38.481Z,10.04
2023-03-08T12:14:18.754Z,9.87
2023-03-08T12:16:59.709Z,9.86
2023-03-08T12:19:39.838Z,9.75
2023-03-08T12:22:28.601Z,9.57
2023-03-08T12:24:58.655Z,9.63
2023-03-08T12:27:40.105Z,9.73
2023-03-08T12:30:28.276Z,9.77
2023-03-08T12:32:56.519Z,9.72
2023-03-08T12:35:23.159Z,9.82
2023-03-08T12:38:15.543Z,9.94
2023-03-08T12:40:48.097Z,10.01
2023-03-08T12:43:27.740Z,10.07
2023-03-08T12:45:57.005Z,9.64
2023-03-08T12:48:37.888Z,9.47
2023-03-08T12:51:19.493Z,9.53
2023-03-08T12:53:55.589Z,9.46
2023-03-08T12:56:35.742Z,9.47
2023-03-08T12:59:04.036Z,9.45
2023-03-08T13:01:40.596Z,9.49
2023-03-08T13:04:41.796Z,9.42
2023-03-08T13:07:22.289Z,9.53
2023-03-08T13:10:15.077Z,9.64
2023-03-08T13:13:05.038Z,9.74
2023-03-08T13:15:31.654Z,9.73
2023-03-08T13:18:11.046Z,9.71
2023-03-08T13:20:41.782Z,9.66
2023-03-08T13:23:22.509Z,9.45
2023-03-08T13:26:07.821Z,9.61
2023-03-08T13:28:47.723Z,9.58
2023-03-08T13:31:20.731Z,9.57
2023-03-08T13:33:53.178Z,9.57
2023-03-08T13:36:33.463Z,9.41
2023-03-08T13:39:04.083Z,9.37
2023-03-08T13:41:34.763Z,9.40
2023-03-08T13:44:04.104Z,9.45
2023-03-08T13:46:31.083Z,9.38
2023-03-08T13:48:57.993Z,9.21
2023-03-08T13:51:27.975Z,9.22
2023-03-08T13:53:55.658Z,9.25
2023-03-08T13:56:26.135Z,9.29
2023-03-08T13:58:56.929Z,9.44
2023-03-08T14:01:25.695Z,9.47
2023-03-08T14:03:55.467Z,9.38
2023-03-08T14:06:30.169Z,9.50
2023-03-08T14:08:59.499Z,9.59
2023-03-08T14:11:34.768Z,9.83
2023-03-08T14:14:04.674Z,10.44
2023-03-08T14:16:34.939Z,10.61
2023-03-08T14:19:32.404Z,11.14
2023-03-08T14:22:01.929Z,11.63
2023-03-08T14:24:31.040Z,11.93
2023-03-08T14:27:05.602Z,11.71
2023-03-08T14:29:36.589Z,11.52
2023-03-08T14:32:06.646Z,11.07
2023-03-08T14:34:36.458Z,10.82
2023-03-08T14:37:08.197Z,10.50
2023-03-08T14:39:36.626Z,10.45
2023-03-08T14:42:24.830Z,10.33
2023-03-08T14:45:04.159Z,10.11
2023-03-08T14:47:40.114Z,10.06
2023-03-08T14:50:09.344Z,10.11
2023-03-08T14:52:44.117Z,10.09
2023-03-08T14:55:32.006Z,10.04
2023-03-08T14:58:03.669Z,9.98
2023-03-08T15:00:31.623Z,9.98
2023-03-08T15:02:59.418Z,9.88
2023-03-08T15:05:29.515Z,10.03
2023-03-08T15:07:57.706Z,10.09
2023-03-08T15:10:36.596Z,10.19
2023-03-08T15:13:04.668Z,10.25
2023-03-08T15:15:31.144Z,10.19
2023-03-08T15:17:57.704Z,10.13
2023-03-08T15:20:25.085Z,10.17
2023-03-08T15:22:56.166Z,10.15
2023-03-08T15:25:34.680Z,10.10
2023-03-08T15:28:01.479Z,10.00
2023-03-08T15:30:30.023Z,10.04
2023-03-08T15:32:59.448Z,10.06
2023-03-08T15:35:26.113Z,10.09
2023-03-08T15:37:52.619Z,10.06
2023-03-08T15:40:23.982Z,10.13
2023-03-08T15:42:50.597Z,10.22
2023-03-08T15:45:17.445Z,10.21
2023-03-08T15:47:44.137Z,10.26
2023-03-08T15:50:16.828Z,10.23
2023-03-08T15:52:44.342Z,10.23
2023-03-08T15:55:12.858Z,10.25
2023-03-08T15:57:40.200Z,10.17
2023-03-08T16:00:09.543Z,10.12
2023-03-08T16:02:36.274Z,10.13
2023-03-08T16:05:04.477Z,10.15
2023-03-08T16:07:31.203Z,10.05
2023-03-08T16:09:57.977Z,10.13
2023-03-08T16:12:24.917Z,10.08
2023-03-08T16:14:54.719Z,10.14
2023-03-08T16:17:21.509Z,10.17
2023-03-08T16:19:48.077Z,10.27
2023-03-08T16:22:14.654Z,10.35
2023-03-08T16:24:41.156Z,10.52
2023-03-08T16:27:07.657Z,10.50
2023-03-08T16:29:34.206Z,10.49
2023-03-08T16:32:01.078Z,10.61
2023-03-08T16:34:28.884Z,10.73
2023-03-08T16:36:56.089Z,10.78
2023-03-08T16:39:23.892Z,10.74
2023-03-08T16:41:50.528Z,10.86
2023-03-08T16:44:26.592Z,10.81
2023-03-08T16:46:53.710Z,10.73
2023-03-08T16:49:22.726Z,10.66
2023-03-08T16:51:51.890Z,10.65
2023-03-08T16:54:18.353Z,10.59
2023-03-08T16:56:44.865Z,10.62
2023-03-08T16:59:13.789Z,10.75
2023-03-08T17:01:42.524Z,10.76
2023-03-08T17:04:10.604Z,10.71
2023-03-08T17:06:37.890Z,10.79
2023-03-08T17:09:05.700Z,10.70
2023-03-08T17:11:34.341Z,10.62
2023-03-08T17:14:06.268Z,10.52
2023-03-08T17:16:33.820Z,10.44
2023-03-08T17:19:01.272Z,10.38
2023-03-08T17:21:28.890Z,10.28
2023-03-08T17:23:55.557Z,10.20
2023-03-08T17:26:23.226Z,10.14
2023-03-08T17:28:51.668Z,10.01
2023-03-08T17:31:21.064Z,9.95
2023-03-08T17:33:48.210Z,9.88
2023-03-08T17:36:15.799Z,9.83
2023-03-08T17:38:42.710Z,9.79
2023-03-08T17:41:14.477Z,9.84
2023-03-08T17:43:41.834Z,9.80
2023-03-08T17:46:12.807Z,9.78
2023-03-08T17:48:39.670Z,9.79
2023-03-08T17:51:08.672Z,9.72
2023-03-08T17:53:35.808Z,9.60
2023-03-08T17:56:06.427Z,9.52
2023-03-08T17:58:33.662Z,9.44
2023-03-08T18:01:14.842Z,9.35
2023-03-08T18:03:41.873Z,9.35
2023-03-08T18:06:18.426Z,9.38
2023-03-08T18:08:45.211Z,9.31
2023-03-08T18:11:11.752Z,9.24
2023-03-08T18:13:40.589Z,9.24
2023-03-08T18:16:07.378Z,9.23
2023-03-08T18:18:34.122Z,9.25
2023-03-08T18:21:12.701Z,9.27
2023-03-08T18:23:41.778Z,9.30
2023-03-08T18:26:10.205Z,9.29
2023-03-08T18:28:36.794Z,9.26
2023-03-08T18:31:12.580Z,9.23
2023-03-08T18:33:39.337Z,9.21
2023-03-08T18:36:06.365Z,9.20
2023-03-08T18:38:33.248Z,9.15
2023-03-08T18:41:00.149Z,9.23
2023-03-08T18:43:26.699Z,9.23
2023-03-08T18:45:55.043Z,9.25
2023-03-08T18:48:23.447Z,9.32
2023-03-08T18:50:50.025Z,9.30
2023-03-08T18:53:16.703Z,9.23
2023-03-08T18:55:56.604Z,9.26
2023-03-08T18:58:24.529Z,9.18
2023-03-08T19:00:56.895Z,9.08
2023-03-08T19:03:23.583Z,9.00
2023-03-08T19:05:50.140Z,8.92
2023-03-08T19:08:16.662Z,8.88
2023-03-08T19:10:43.133Z,8.82
2023-03-08T19:13:09.660Z,8.77
2023-03-08T19:15:38.105Z,8.69
2023-03-08T19:18:06.142Z,8.63
2023-03-08T19:20:37.006Z,8.57
2023-03-08T19:23:03.858Z,8.56
2023-03-08T19:25:55.857Z,8.59
2023-03-08T19:28:23.131Z,8.47
2023-03-08T19:30:49.623Z,8.44
2023-03-08T19:33:29.589Z,8.41
2023-03-08T19:35:57.252Z,8.38
2023-03-08T19:38:23.926Z,8.36
2023-03-08T19:40:50.420Z,8.37
2023-03-08T19:43:16.937Z,8.37
2023-03-08T19:45:48.877Z,8.37
2023-03-08T19:48:15.565Z,8.36
2023-03-08T19:50:46.148Z,8.29
2023-03-08T19:53:12.770Z,8.28
2023-03-08T19:55:51.589Z,8.27
2023-03-08T19:58:18.969Z,8.27
2023-03-08T20:00:46.916Z,8.27
2023-03-08T20:03:15.809Z,8.21
2023-03-08T20:05:44.436Z,8.20
2023-03-08T20:08:12.501Z,8.19
2023-03-08T20:10:39.634Z,8.14
2023-03-08T20:13:06.140Z,8.14
2023-03-08T20:15:32.688Z,8.26
2023-03-08T20:17:59.273Z,8.37
2023-03-08T20:20:25.861Z,8.41
2023-03-08T20:22:52.369Z,8.39
2023-03-08T20:25:18.893Z,8.39
2023-03-08T20:27:45.436Z,8.31
2023-03-08T20:30:12.628Z,8.22
2023-03-08T20:32:39.274Z,8.28
2023-03-08T20:35:06.908Z,8.31
2023-03-08T20:37:33.765Z,8.43
2023-03-08T20:40:02.536Z,8.35
2023-03-08T20:42:31.070Z,8.24
2023-03-08T20:44:57.555Z,8.06
2023-03-08T20:47:24.075Z,7.94
2023-03-08T20:49:50.602Z,7.89
2023-03-08T20:52:17.114Z,7.83
2023-03-08T20:54:43.659Z,7.78
2023-03-08T20:57:10.403Z,7.69
2023-03-08T20:59:36.899Z,7.62
2023-03-08T21:02:03.624Z,7.57
2023-03-08T21:04:30.690Z,7.50
2023-03-08T21:06:57.385Z,7.38
2023-03-08T21:09:23.867Z,7.38
2023-03-08T21:11:50.382Z,7.30
2023-03-08T21:14:16.903Z,7.31
2023-03-08T21:16:43.532Z,7.28
2023-03-08T21:19:10.304Z,7.29
2023-03-08T21:21:42.089Z,7.26
2023-03-08T21:24:13.894Z,7.25
2023-03-08T21:26:40.644Z,7.22
2023-03-08T21:29:09.317Z,7.21
2023-03-08T21:31:39.484Z,7.21
2023-03-08T21:34:07.358Z,7.19
2023-03-08T21:36:35.129Z,7.20
2023-03-08T21:39:01.718Z,7.18
2023-03-08T21:41:31.554Z,7.23
2023-03-08T21:43:59.263Z,7.19
2023-03-08T21:46:25.930Z,7.18
2023-03-08T21:48:54.276Z,7.21
2023-03-08T21:51:21.013Z,7.23
2023-03-08T21:53:47.817Z,7.23
2023-03-08T21:56:16.646Z,7.29
2023-03-08T21:58:44.180Z,7.29
2023-03-08T22:01:22.720Z,7.26
2023-03-08T22:03:49.929Z,7.32
2023-03-08T22:06:16.914Z,7.39
2023-03-08T22:08:43.479Z,7.28
2023-03-08T22:11:10.534Z,7.32
2023-03-08T22:13:38.547Z,7.38
2023-03-08T22:16:05.595Z,7.37
2023-03-08T22:18:32.378Z,7.37
2023-03-08T22:20:59.648Z,7.33
2023-03-08T22:23:26.911Z,7.35
2023-03-08T22:25:54.642Z,7.33
2023-03-08T22:28:21.541Z,7.38
2023-03-08T22:30:48.224Z,7.39
2023-03-08T22:33:15.011Z,7.42
2023-03-08T22:35:47.887Z,7.47
2023-03-08T22:38:15.469Z,7.44
2023-03-08T22:40:42.855Z,7.39
2023-03-08T22:43:09.967Z,7.36
2023-03-08T22:45:36.784Z,7.36
2023-03-08T22:48:04.550Z,7.33
2023-03-08T22:50:31.048Z,7.36
2023-03-08T22:52:57.649Z,7.35
2023-03-08T22:55:24.155Z,7.29
2023-03-08T22:57:50.675Z,7.27
2023-03-08T23:00:17.389Z,7.24
2023-03-08T23:02:45.529Z,7.28
2023-03-08T23:05:13.672Z,7.23
2023-03-08T23:07:40.189Z,7.21
2023-03-08T23:10:07.065Z,7.20
2023-03-08T23:12:33.577Z,7.06
2023-03-08T23:15:00.168Z,6.98
2023-03-08T23:17:26.707Z,7.00
2023-03-08T23:19:53.211Z,6.93
2023-03-08T23:22:19.752Z,6.95
2023-03-08T23:24:46.220Z,6.93
2023-03-08T23:27:12.799Z,6.97
2023-03-08T23:29:39.357Z,6.94
2023-03-08T23:32:06.477Z,6.95
2023-03-08T23:34:33.644Z,7.02
2023-03-08T23:37:03.748Z,7.01
2023-03-08T23:39:30.959Z,7.00
2023-03-08T23:41:57.508Z,7.06
2023-03-08T23:44:24.036Z,7.05
2023-03-08T23:46:50.568Z,7.07
2023-03-08T23:49:17.317Z,7.13
2023-03-08T23:51:44.002Z,7.06
2023-03-08T23:54:11.774Z,7.03
2023-03-08T23:56:40.162Z,6.97
2023-03-08T23:59:19.219Z,6.94
